Time;durP1;ratioP1;P1;durP2;ratioP2;P2;SDS_P1;SDS_P2;PMS_P1;PMS_P2;Temp;Humidity;BMP_temperature;BMP_pressure;BME280_temperature;BME280_humidity;BME280_pressure;Samples;Min_cycle;Max_cycle;Signal;HPM_P1;HPM_P2
2022/01/23 00:00:20;;;;;;;0.43;0.43;;;5.30;99.90;;;;;;4422095;32;20054;-68
2022/01/23 00:02:49;;;;;;;0.85;0.85;;;5.30;99.90;;;;;;4437560;32;20614;-67
2022/01/23 00:05:16;;;;;;;2.60;1.45;;;5.30;99.90;;;;;;4440052;32;20517;-68
2022/01/23 00:07:43;;;;;;;3.25;1.25;;;5.30;99.90;;;;;;4437489;32;20045;-67
2022/01/23 00:10:10;;;;;;;0.57;0.57;;;5.30;99.90;;;;;;4435810;32;20084;-67
2022/01/23 00:12:45;;;;;;;2.20;1.45;;;5.30;99.90;;;;;;4441676;32;20157;-67
2022/01/23 00:17:20;;;;;;;0.52;0.52;;;5.30;99.90;;;;;;4438849;32;20069;-67
2022/01/23 00:17:56;;;;;;;0.80;0.80;;;5.30;99.90;;;;;;4423174;32;20132;-67
2022/01/23 00:20:23;;;;;;;1.00;0.98;;;5.40;99.90;;;;;;4439555;32;20084;-67
2022/01/23 00:22:53;;;;;;;3.35;0.70;;;5.40;99.90;;;;;;4440615;32;20084;-67
2022/01/23 00:30:25;;;;;;;0.37;0.37;;;5.40;99.90;;;;;;4424735;32;20467;-67
2022/01/23 00:30:53;;;;;;;0.50;0.50;;;5.40;99.90;;;;;;4427147;32;20065;-67
2022/01/23 00:33:19;;;;;;;6.10;0.80;;;5.40;99.90;;;;;;4439645;32;20105;-67
2022/01/23 00:35:46;;;;;;;0.60;0.60;;;5.40;99.90;;;;;;4441315;32;20077;-67
2022/01/23 00:38:14;;;;;;;0.50;0.50;;;5.40;99.90;;;;;;4439669;32;20516;-68
2022/01/23 00:40:41;;;;;;;0.70;0.70;;;5.40;99.90;;;;;;4440913;32;20104;-69
2022/01/23 00:43:14;;;;;;;0.88;0.88;;;5.40;99.90;;;;;;4441680;32;20061;-68
2022/01/23 00:45:45;;;;;;;0.57;0.57;;;5.40;99.90;;;;;;4439187;32;20525;-68
2022/01/23 00:48:12;;;;;;;0.60;0.60;;;5.40;99.90;;;;;;4439107;32;20061;-68
2022/01/23 00:50:41;;;;;;;0.30;0.30;;;5.40;99.90;;;;;;4439682;32;20135;-67
2022/01/23 00:53:09;;;;;;;0.52;0.52;;;5.30;99.90;;;;;;4426112;32;20069;-68
2022/01/23 00:55:36;;;;;;;0.30;0.30;;;5.40;99.90;;;;;;4435071;32;20131;-68
2022/01/23 00:58:02;;;;;;;0.50;0.50;;;5.40;99.90;;;;;;4436420;32;20073;-68
2022/01/23 01:00:28;;;;;;;0.55;0.55;;;5.40;99.90;;;;;;4438875;32;20423;-68
2022/01/23 01:02:53;;;;;;;0.30;0.30;;;5.40;99.90;;;;;;4439080;32;20065;-68
2022/01/23 01:05:19;;;;;;;0.40;0.40;;;5.50;99.90;;;;;;4440129;32;20060;-68
2022/01/23 01:07:45;;;;;;;16.27;0.82;;;5.50;99.90;;;;;;4441232;32;20518;-67
2022/01/23 01:10:20;;;;;;;0.85;0.73;;;5.40;99.90;;;;;;4438283;32;20065;-66
2022/01/23 01:12:48;;;;;;;0.50;0.50;;;5.40;99.90;;;;;;4440597;32;20100;-67
2022/01/23 01:31:34;;;;;;;0.60;0.60;;;5.50;99.90;;;;;;4438750;32;20069;-68
2022/01/23 01:34:21;;;;;;;0.50;0.50;;;5.60;99.90;;;;;;4438294;32;20121;-67
2022/01/23 01:36:51;;;;;;;0.30;0.30;;;5.50;99.90;;;;;;4436591;32;20093;-67
2022/01/23 01:39:19;;;;;;;0.30;0.30;;;5.50;99.90;;;;;;4426424;32;20176;-67
2022/01/23 01:41:45;;;;;;;0.30;0.30;;;5.60;99.90;;;;;;4440154;32;20069;-67
2022/01/23 01:44:11;;;;;;;0.50;0.50;;;5.50;99.90;;;;;;4438187;32;20065;-67
2022/01/23 01:46:37;;;;;;;0.37;0.37;;;5.60;99.90;;;;;;4438906;32;20132;-67
2022/01/23 01:49:03;;;;;;;0.30;0.30;;;5.60;99.90;;;;;;4438726;32;20066;-67
2022/01/23 01:51:31;;;;;;;0.40;0.40;;;5.60;99.90;;;;;;4439592;32;20721;-67
2022/01/23 01:54:05;;;;;;;0.47;0.47;;;5.60;99.90;;;;;;4438770;32;20197;-67
2022/01/23 01:56:38;;;;;;;0.30;0.30;;;5.60;99.90;;;;;;4440436;32;20076;-67
2022/01/23 02:08:34;;;;;;;0.30;0.30;;;5.60;99.90;;;;;;4438955;32;20073;-68
2022/01/23 02:09:27;;;;;;;0.40;0.40;;;5.70;99.90;;;;;;4426724;32;20105;-67
2022/01/23 02:12:08;;;;;;;0.47;0.47;;;5.60;99.90;;;;;;4438417;32;20066;-68
2022/01/23 02:18:20;;;;;;;0.73;0.47;;;5.70;99.90;;;;;;4437896;32;20097;-66
2022/01/23 02:23:00;;;;;;;0.45;0.45;;;5.70;99.90;;;;;;4424639;32;20310;-68
2022/01/23 02:23:22;;;;;;;0.22;0.22;;;5.60;99.90;;;;;;4437712;32;20414;-67
2022/01/23 02:51:33;;;;;;;0.52;0.50;;;5.70;99.90;;;;;;4437138;32;20085;-67
2022/01/23 02:55:45;;;;;;;0.47;0.47;;;5.70;99.90;;;;;;4439721;32;20077;-67
2022/01/23 02:58:15;;;;;;;0.40;0.40;;;5.70;99.90;;;;;;4440819;32;20561;-67
2022/01/23 03:01:17;;;;;;;1.23;0.62;;;5.70;99.90;;;;;;4439766;32;20097;-67
2022/01/23 03:03:26;;;;;;;0.80;0.80;;;5.70;99.90;;;;;;4439350;32;20077;-67
2022/01/23 03:06:18;;;;;;;0.57;0.35;;;5.80;99.90;;;;;;4442371;32;20088;-67
2022/01/23 03:09:08;;;;;;;0.30;0.30;;;5.80;99.90;;;;;;4439874;32;20130;-67
2022/01/23 03:11:52;;;;;;;0.30;0.30;;;5.80;99.90;;;;;;4427484;32;20133;-66
2022/01/23 03:15:20;;;;;;;0.30;0.30;;;5.80;99.90;;;;;;4423707;32;20447;-67
2022/01/23 03:25:14;;;;;;;0.40;0.40;;;5.80;99.90;;;;;;4439124;32;20045;-68
2022/01/23 03:25:43;;;;;;;0.50;0.50;;;5.80;99.90;;;;;;4438067;32;20116;-67
2022/01/23 03:30:29;;;;;;;0.30;0.30;;;5.80;99.90;;;;;;4440416;32;20057;-67
2022/01/23 03:32:55;;;;;;;0.30;0.30;;;5.80;99.90;;;;;;4440670;32;20614;-68
2022/01/23 03:35:22;;;;;;;0.40;0.40;;;5.80;99.90;;;;;;4439390;32;20081;-66
2022/01/23 03:37:48;;;;;;;0.60;0.60;;;5.80;99.90;;;;;;4440048;32;20560;-67
2022/01/23 03:40:15;;;;;;;0.32;0.32;;;5.80;99.90;;;;;;4439066;32;20085;-67
2022/01/23 03:42:42;;;;;;;0.50;0.50;;;5.80;99.90;;;;;;4426187;32;20147;-67
2022/01/23 03:48:01;;;;;;;0.40;0.40;;;5.80;99.90;;;;;;4437370;32;20084;-67
2022/01/23 03:50:26;;;;;;;0.43;0.43;;;5.70;99.90;;;;;;4439085;32;20070;-67
2022/01/23 03:52:52;;;;;;;0.40;0.40;;;5.70;99.90;;;;;;4438639;32;20140;-67
2022/01/23 03:55:17;;;;;;;0.30;0.30;;;5.70;99.90;;;;;;4439797;32;20104;-67
2022/01/23 03:57:43;;;;;;;0.40;0.40;;;5.70;99.90;;;;;;4439456;32;20053;-67
2022/01/23 04:00:09;;;;;;;0.30;0.30;;;5.70;99.90;;;;;;4440030;32;20639;-67
2022/01/23 04:02:34;;;;;;;0.35;0.35;;;5.70;99.90;;;;;;4440825;32;20057;-67
2022/01/23 04:05:00;;;;;;;4.30;0.73;;;5.70;99.90;;;;;;4442895;32;20536;-67
2022/01/23 04:07:28;;;;;;;0.30;0.30;;;5.70;99.90;;;;;;4440697;32;20081;-67
2022/01/23 04:09:54;;;;;;;0.40;0.40;;;5.70;99.90;;;;;;4442381;32;20073;-67
2022/01/23 04:12:33;;;;;;;0.50;0.50;;;5.80;99.90;;;;;;4439675;32;20101;-67
2022/01/23 04:15:13;;;;;;;0.40;0.37;;;5.70;99.90;;;;;;4424730;32;20569;-67
2022/01/23 04:18:27;;;;;;;0.40;0.40;;;5.80;99.90;;;;;;4439402;32;20209;-67
2022/01/23 04:34:20;;;;;;;0.60;0.60;;;5.70;99.90;;;;;;4436104;32;81918;-68
2022/01/23 04:45:25;;;;;;;1.15;0.73;;;5.70;99.90;;;;;;4437897;32;20120;-67
2022/01/23 04:59:35;;;;;;;0.77;0.52;;;5.70;99.90;;;;;;4426101;32;20514;-67
2022/01/23 05:02:05;;;;;;;0.40;0.37;;;5.70;99.90;;;;;;4426849;32;20097;-68
2022/01/23 05:04:33;;;;;;;0.40;0.40;;;5.70;99.90;;;;;;4437828;32;20088;-67
2022/01/23 05:09:27;;;;;;;0.77;0.73;;;5.60;99.90;;;;;;4438425;32;20061;-67
2022/01/23 05:11:59;;;;;;;0.30;0.30;;;5.60;99.90;;;;;;4441317;32;20491;-67
2022/01/23 05:14:30;;;;;;;0.30;0.30;;;5.60;99.90;;;;;;4440538;32;20603;-67
2022/01/23 05:16:56;;;;;;;0.40;0.40;;;5.60;99.90;;;;;;4440866;32;20537;-67
2022/01/23 05:19:22;;;;;;;0.30;0.30;;;5.60;99.90;;;;;;4438263;32;20092;-67
2022/01/23 05:24:20;;;;;;;0.98;0.65;;;5.70;99.90;;;;;;4436002;32;20088;-67
2022/01/23 05:26:46;;;;;;;0.40;0.40;;;5.60;99.90;;;;;;4437975;32;20094;-67
2022/01/23 05:29:13;;;;;;;0.40;0.40;;;5.60;99.90;;;;;;4439155;32;20563;-67
2022/01/23 05:31:40;;;;;;;0.40;0.40;;;5.60;99.90;;;;;;4436673;32;20123;-67
2022/01/23 05:34:06;;;;;;;1.10;0.47;;;5.60;99.90;;;;;;4425705;32;20114;-67
2022/01/23 05:36:32;;;;;;;0.50;0.50;;;5.60;99.90;;;;;;4439422;32;20056;-69
2022/01/23 05:38:58;;;;;;;0.30;0.30;;;5.70;99.90;;;;;;4439717;32;20465;-67
2022/01/23 05:41:24;;;;;;;0.40;0.40;;;5.60;99.90;;;;;;4438934;32;20058;-67
2022/01/23 05:43:50;;;;;;;0.25;0.25;;;5.70;99.90;;;;;;4439198;32;20139;-67
2022/01/23 05:46:16;;;;;;;0.50;0.50;;;5.60;99.90;;;;;;4440201;32;20057;-67
2022/01/23 05:48:41;;;;;;;0.40;0.40;;;5.60;99.90;;;;;;4440522;32;20105;-67
2022/01/23 05:51:12;;;;;;;0.30;0.30;;;5.60;99.90;;;;;;4440369;32;20443;-67
2022/01/23 05:53:38;;;;;;;0.40;0.40;;;5.60;99.90;;;;;;4440195;32;20065;-68
2022/01/23 05:56:04;;;;;;;0.85;0.75;;;5.60;99.90;;;;;;4439191;32;20109;-67
2022/01/23 05:58:30;;;;;;;0.30;0.30;;;5.60;99.90;;;;;;4437806;32;20096;-67
2022/01/23 06:00:55;;;;;;;2.00;0.82;;;5.60;99.90;;;;;;4438025;32;20056;-67
2022/01/23 06:03:21;;;;;;;3.50;0.62;;;5.60;99.90;;;;;;4440131;32;20070;-68
2022/01/23 06:05:47;;;;;;;0.43;0.43;;;5.60;99.90;;;;;;4439279;32;20121;-67
2022/01/23 06:08:12;;;;;;;0.40;0.35;;;5.60;99.90;;;;;;4441355;32;20513;-68
2022/01/23 06:10:53;;;;;;;0.30;0.30;;;5.60;99.90;;;;;;4427976;32;20092;-68
2022/01/23 06:13:19;;;;;;;1.27;0.47;;;5.60;99.90;;;;;;4441447;32;20085;-67
2022/01/23 06:15:44;;;;;;;0.40;0.40;;;5.60;99.90;;;;;;4441957;32;20508;-67
2022/01/23 06:18:10;;;;;;;0.40;0.40;;;5.60;99.90;;;;;;4442545;32;20124;-68
2022/01/23 06:20:35;;;;;;;0.60;0.60;;;5.60;99.90;;;;;;4440888;32;21272;-68
2022/01/23 06:23:01;;;;;;;0.37;0.37;;;5.70;99.90;;;;;;4443240;32;20105;-68
2022/01/23 06:25:34;;;;;;;0.55;0.55;;;5.60;99.90;;;;;;4440741;32;20089;-69
2022/01/23 06:28:02;;;;;;;0.30;0.30;;;5.70;99.90;;;;;;4441809;32;20073;-68
2022/01/23 06:30:28;;;;;;;0.50;0.50;;;5.60;99.90;;;;;;4441191;32;20088;-68
2022/01/23 06:32:53;;;;;;;0.32;0.32;;;5.60;99.90;;;;;;4441358;32;20064;-67
2022/01/23 06:35:19;;;;;;;0.88;0.85;;;5.60;99.90;;;;;;4442120;32;20483;-67
2022/01/23 06:37:44;;;;;;;1.45;0.80;;;5.70;99.90;;;;;;4443084;32;20093;-67
2022/01/23 06:40:10;;;;;;;1.27;0.85;;;5.70;99.90;;;;;;4440018;32;20084;-67
2022/01/23 06:42:36;;;;;;;0.40;0.40;;;5.70;99.90;;;;;;4440555;32;20525;-67
2022/01/23 06:45:02;;;;;;;0.40;0.40;;;5.70;99.90;;;;;;4442210;32;20062;-68
2022/01/23 06:47:27;;;;;;;0.40;0.40;;;5.60;99.90;;;;;;4439621;32;20089;-67
2022/01/23 06:49:53;;;;;;;1.02;0.65;;;5.60;99.90;;;;;;4440608;32;20061;-67
2022/01/23 06:52:18;;;;;;;5.93;0.77;;;5.70;99.90;;;;;;4439254;32;20065;-67
2022/01/23 06:54:44;;;;;;;0.85;0.50;;;5.60;99.90;;;;;;4439174;32;20081;-67
2022/01/23 06:57:10;;;;;;;1.27;0.57;;;5.60;99.90;;;;;;4440544;32;20439;-67
2022/01/23 06:59:35;;;;;;;0.55;0.55;;;5.70;99.90;;;;;;4443599;32;20097;-67
2022/01/23 07:02:03;;;;;;;0.40;0.40;;;5.70;99.90;;;;;;4440565;32;20119;-67
2022/01/23 07:04:28;;;;;;;0.30;0.30;;;5.70;99.90;;;;;;4440392;32;20069;-67
2022/01/23 07:06:54;;;;;;;1.55;0.65;;;5.70;99.90;;;;;;4439884;32;20094;-67
2022/01/23 07:09:19;;;;;;;0.40;0.40;;;5.80;99.90;;;;;;4440277;32;20150;-67
2022/01/23 07:11:45;;;;;;;0.30;0.30;;;5.80;99.90;;;;;;4442781;32;20088;-67
2022/01/23 07:14:10;;;;;;;0.43;0.40;;;5.70;99.90;;;;;;4440958;32;20093;-68
2022/01/23 07:16:36;;;;;;;0.40;0.40;;;5.70;99.90;;;;;;4439462;32;20119;-68
2022/01/23 07:19:02;;;;;;;0.52;0.40;;;5.70;99.90;;;;;;4443523;32;20076;-67
2022/01/23 07:21:28;;;;;;;1.15;1.05;;;5.70;99.90;;;;;;4440795;32;20069;-68
2022/01/23 07:23:53;;;;;;;0.30;0.30;;;5.70;99.90;;;;;;4438642;32;20077;-68
2022/01/23 07:26:22;;;;;;;0.52;0.52;;;5.70;99.90;;;;;;4440538;32;20073;-67
2022/01/23 07:28:49;;;;;;;0.40;0.40;;;5.70;99.90;;;;;;4440580;32;20089;-68
2022/01/23 07:31:31;;;;;;;0.40;0.40;;;5.70;99.90;;;;;;4440496;32;20072;-67
2022/01/23 07:34:00;;;;;;;1.10;0.80;;;5.70;99.90;;;;;;4441196;32;20151;-67
2022/01/23 07:36:26;;;;;;;0.30;0.30;;;5.70;99.90;;;;;;4441822;32;20168;-67
2022/01/23 07:38:51;;;;;;;0.40;0.40;;;5.70;99.90;;;;;;4442250;32;20080;-68
2022/01/23 07:41:17;;;;;;;0.50;0.50;;;5.80;99.90;;;;;;4440115;32;20411;-68
2022/01/23 07:43:42;;;;;;;0.30;0.30;;;5.80;99.90;;;;;;4440568;32;20126;-67
2022/01/23 07:46:07;;;;;;;0.40;0.40;;;5.80;99.90;;;;;;4441042;32;20098;-67
2022/01/23 07:48:33;;;;;;;0.30;0.30;;;5.70;99.90;;;;;;4441101;32;20480;-68
2022/01/23 07:50:58;;;;;;;0.35;0.35;;;5.80;99.90;;;;;;4440017;32;20092;-68
2022/01/23 07:53:24;;;;;;;0.35;0.35;;;5.80;99.90;;;;;;4441843;32;20069;-68
2022/01/23 07:55:49;;;;;;;0.20;0.20;;;5.70;99.90;;;;;;4441197;32;20085;-68
2022/01/23 07:58:15;;;;;;;0.37;0.37;;;5.80;99.90;;;;;;4441458;32;20483;-68
2022/01/23 08:00:41;;;;;;;0.40;0.40;;;5.80;99.90;;;;;;4440032;32;20076;-67
2022/01/23 08:03:07;;;;;;;0.40;0.40;;;5.80;99.90;;;;;;4438899;32;20084;-68
2022/01/23 08:05:32;;;;;;;0.40;0.40;;;5.80;99.90;;;;;;4441728;32;20920;-66
2022/01/23 08:07:58;;;;;;;0.43;0.40;;;5.80;99.90;;;;;;4440315;32;20100;-66
2022/01/23 08:10:23;;;;;;;0.40;0.40;;;5.90;99.90;;;;;;4441151;32;20098;-66
2022/01/23 08:12:49;;;;;;;0.40;0.40;;;5.90;99.90;;;;;;4441249;32;20070;-68
2022/01/23 08:15:15;;;;;;;0.40;0.40;;;5.90;99.90;;;;;;4442501;32;20077;-67
2022/01/23 08:17:41;;;;;;;0.45;0.45;;;5.80;99.90;;;;;;4440436;32;20100;-67
2022/01/23 08:20:08;;;;;;;1.10;0.65;;;5.80;99.90;;;;;;4441325;32;20107;-67
2022/01/23 08:22:33;;;;;;;0.43;0.43;;;5.90;99.90;;;;;;4441401;32;20087;-68
2022/01/23 08:25:02;;;;;;;2.00;0.70;;;5.90;99.90;;;;;;4439036;32;20521;-67
2022/01/23 08:27:28;;;;;;;0.30;0.30;;;6.00;99.90;;;;;;4437982;32;20072;-67
2022/01/23 08:29:53;;;;;;;0.30;0.30;;;6.00;99.90;;;;;;4439632;32;20147;-69
2022/01/23 08:32:20;;;;;;;0.52;0.52;;;6.10;99.90;;;;;;4440989;32;20198;-68
2022/01/23 08:34:45;;;;;;;0.52;0.52;;;6.00;99.90;;;;;;4427857;32;20123;-68
2022/01/23 08:37:11;;;;;;;0.30;0.30;;;6.10;99.90;;;;;;4440194;32;20060;-67
2022/01/23 08:39:38;;;;;;;1.73;0.62;;;6.10;99.90;;;;;;4440497;32;20638;-68
2022/01/23 08:42:05;;;;;;;0.40;0.40;;;6.10;99.90;;;;;;4439985;32;20124;-68
2022/01/23 08:44:31;;;;;;;0.30;0.30;;;6.20;99.90;;;;;;4442517;32;20544;-68
2022/01/23 08:46:57;;;;;;;0.30;0.30;;;6.20;99.90;;;;;;4440006;32;20128;-68
2022/01/23 08:49:23;;;;;;;0.47;0.47;;;6.20;99.90;;;;;;4438774;32;20127;-68
2022/01/23 08:51:51;;;;;;;0.60;0.47;;;6.20;99.90;;;;;;4438124;32;20089;-68
2022/01/23 08:54:16;;;;;;;0.30;0.30;;;6.20;99.90;;;;;;4441213;32;20073;-68
2022/01/23 08:56:43;;;;;;;0.40;0.40;;;6.30;99.90;;;;;;4437976;32;20083;-66
2022/01/23 08:59:09;;;;;;;0.30;0.30;;;6.40;99.90;;;;;;4437435;32;20111;-67
2022/01/23 09:01:35;;;;;;;0.47;0.47;;;6.40;99.90;;;;;;4427008;32;20136;-69
2022/01/23 09:04:02;;;;;;;0.20;0.20;;;6.40;99.90;;;;;;4441819;32;20088;-68
2022/01/23 09:06:28;;;;;;;0.35;0.25;;;6.40;99.90;;;;;;4439048;32;20069;-68
2022/01/23 09:08:54;;;;;;;0.30;0.30;;;6.40;99.90;;;;;;4439933;32;20434;-67
2022/01/23 09:11:26;;;;;;;0.52;0.52;;;6.40;99.90;;;;;;4438645;32;20085;-69
2022/01/23 09:14:10;;;;;;;0.30;0.30;;;6.50;99.90;;;;;;4438909;32;20145;-68
2022/01/23 09:16:40;;;;;;;0.32;0.32;;;6.50;99.90;;;;;;4439749;32;20120;-68
2022/01/23 09:19:07;;;;;;;0.50;0.50;;;6.50;99.90;;;;;;4440048;32;20085;-68
2022/01/23 09:21:33;;;;;;;0.47;0.47;;;6.50;99.90;;;;;;4426757;32;20351;-67
2022/01/23 09:23:58;;;;;;;0.22;0.22;;;6.40;99.90;;;;;;4439520;32;20431;-67
2022/01/23 09:26:24;;;;;;;3.90;1.70;;;6.40;99.90;;;;;;4439874;32;20119;-66
2022/01/23 09:28:54;;;;;;;0.30;0.30;;;6.40;99.90;;;;;;4440057;32;20072;-68
2022/01/23 09:31:48;;;;;;;0.65;0.45;;;6.50;99.90;;;;;;4438444;32;20068;-69
2022/01/23 09:34:05;;;;;;;1.02;0.47;;;6.50;99.90;;;;;;4438389;32;20073;-68
2022/01/23 09:36:31;;;;;;;0.22;0.22;;;6.50;99.90;;;;;;4440842;32;20524;-68
2022/01/23 09:38:56;;;;;;;0.30;0.30;;;6.50;99.90;;;;;;4441209;32;20056;-68
2022/01/23 09:41:27;;;;;;;0.25;0.25;;;6.50;99.90;;;;;;4443100;32;20064;-67
2022/01/23 09:43:55;;;;;;;0.30;0.30;;;6.50;99.90;;;;;;4443920;32;20097;-67
2022/01/23 09:46:23;;;;;;;0.40;0.40;;;6.50;99.90;;;;;;4444772;32;20072;-67
2022/01/23 09:48:51;;;;;;;0.20;0.20;;;6.60;99.90;;;;;;4444557;32;20069;-68
2022/01/23 09:51:20;;;;;;;0.30;0.30;;;6.60;99.90;;;;;;4431639;32;20065;-67
2022/01/23 09:53:46;;;;;;;0.50;0.50;;;6.70;99.90;;;;;;4445700;32;20092;-67
2022/01/23 09:56:14;;;;;;;0.60;0.40;;;6.70;99.90;;;;;;4444755;32;20084;-67
2022/01/23 09:58:40;;;;;;;0.30;0.30;;;6.70;99.90;;;;;;4444551;32;20073;-67
2022/01/23 10:01:06;;;;;;;0.32;0.32;;;6.70;99.90;;;;;;4446023;32;20108;-67
2022/01/23 10:03:31;;;;;;;0.40;0.40;;;6.70;99.90;;;;;;4444192;32;20450;-67
2022/01/23 10:05:57;;;;;;;0.30;0.30;;;6.60;99.90;;;;;;4444903;32;20092;-67
2022/01/23 10:08:24;;;;;;;1.35;0.50;;;6.60;99.90;;;;;;4443510;32;20183;-67
2022/01/23 10:10:52;;;;;;;0.40;0.40;;;6.60;99.90;;;;;;4443538;32;20072;-67
2022/01/23 10:13:21;;;;;;;0.40;0.40;;;6.60;99.90;;;;;;4443738;32;20065;-67
2022/01/23 10:15:47;;;;;;;0.30;0.30;;;6.70;99.90;;;;;;4443667;32;20115;-67
2022/01/23 10:18:12;;;;;;;0.30;0.30;;;6.70;99.90;;;;;;4430830;32;20179;-68
2022/01/23 10:20:38;;;;;;;0.50;0.50;;;6.70;99.90;;;;;;4445326;32;20085;-68
2022/01/23 10:23:03;;;;;;;0.52;0.50;;;6.70;99.90;;;;;;4443940;32;20553;-68
2022/01/23 10:25:31;;;;;;;0.22;0.22;;;6.70;99.90;;;;;;4442402;32;20497;-68
2022/01/23 10:28:04;;;;;;;0.40;0.40;;;6.80;99.90;;;;;;4443783;32;20084;-68
2022/01/23 10:30:35;;;;;;;0.28;0.28;;;6.90;99.90;;;;;;4441840;32;20604;-68
2022/01/23 10:33:10;;;;;;;0.22;0.22;;;6.90;99.90;;;;;;4444059;32;20194;-68
2022/01/23 10:35:53;;;;;;;0.40;0.40;;;7.00;99.90;;;;;;4444746;32;20073;-68
2022/01/23 10:38:19;;;;;;;0.85;0.40;;;7.10;99.90;;;;;;4442715;32;20520;-68
2022/01/23 10:40:51;;;;;;;0.50;0.50;;;7.00;99.90;;;;;;4443460;32;20154;-68
2022/01/23 10:47:18;;;;;;;0.30;0.30;;;7.00;99.90;;;;;;4444523;32;20081;-68
2022/01/23 10:48:38;;;;;;;0.30;0.30;;;7.00;99.90;;;;;;4431779;32;20577;-67
2022/01/23 10:51:25;;;;;;;0.30;0.30;;;7.00;99.90;;;;;;4441560;32;20186;-67
2022/01/23 10:54:14;;;;;;;0.52;0.52;;;7.10;99.90;;;;;;4441119;32;20293;-67
2022/01/23 10:56:59;;;;;;;0.30;0.30;;;7.00;99.90;;;;;;4439001;32;20112;-67
2022/01/23 10:59:37;;;;;;;0.57;0.57;;;6.90;99.90;;;;;;4439612;32;20140;-67
2022/01/23 11:02:05;;;;;;;0.30;0.30;;;6.90;99.90;;;;;;4428655;32;20430;-67
2022/01/23 11:04:35;;;;;;;0.30;0.30;;;6.90;99.90;;;;;;4443062;32;20064;-68
2022/01/23 11:07:05;;;;;;;0.30;0.30;;;6.90;99.90;;;;;;4441209;32;20076;-68
2022/01/23 11:09:38;;;;;;;0.30;0.30;;;6.90;99.90;;;;;;4439631;32;20080;-67
2022/01/23 11:12:14;;;;;;;0.30;0.30;;;6.90;99.90;;;;;;4440941;32;20131;-68
2022/01/23 11:17:26;;;;;;;0.40;0.40;;;7.00;99.90;;;;;;4439402;32;20068;-68
2022/01/23 11:19:57;;;;;;;0.30;0.30;;;7.10;99.90;;;;;;4428127;32;20593;-68
2022/01/23 11:22:28;;;;;;;0.30;0.30;;;7.10;99.90;;;;;;4425858;32;20521;-68
2022/01/23 11:24:58;;;;;;;0.47;0.45;;;7.30;99.90;;;;;;4440069;32;20072;-68
2022/01/23 11:27:23;;;;;;;0.30;0.30;;;7.30;99.90;;;;;;4438883;32;20084;-68
2022/01/23 11:29:58;;;;;;;0.30;0.30;;;7.40;99.90;;;;;;4441026;32;20545;-68
2022/01/23 11:32:27;;;;;;;0.45;0.45;;;7.60;99.90;;;;;;4440751;32;20068;-68
2022/01/23 11:35:00;;;;;;;0.40;0.40;;;7.60;99.90;;;;;;4440168;32;20624;-68
2022/01/23 11:37:26;;;;;;;0.40;0.40;;;7.60;99.90;;;;;;4442192;32;20581;-68
2022/01/23 11:39:57;;;;;;;1.55;0.68;;;7.50;99.90;;;;;;4440086;32;20105;-68
2022/01/23 11:53:47;;;;;;;0.30;0.30;;;7.40;99.90;;;;;;4436212;32;20109;-67
2022/01/23 11:53:59;;;;;;;0.20;0.20;;;7.40;99.90;;;;;;4439236;32;20084;-67
2022/01/23 11:56:35;;;;;;;0.30;0.30;;;7.40;99.90;;;;;;4438912;32;20077;-67
2022/01/23 11:59:12;;;;;;;0.30;0.30;;;7.50;99.90;;;;;;4439466;32;20078;-68
2022/01/23 12:01:40;;;;;;;0.30;0.30;;;7.50;99.90;;;;;;4438758;32;20069;-68
2022/01/23 12:04:18;;;;;;;0.30;0.30;;;7.40;99.90;;;;;;4435411;32;20553;-67
2022/01/23 12:07:03;;;;;;;0.37;0.37;;;7.40;99.90;;;;;;4439635;32;20081;-67
2022/01/23 12:09:29;;;;;;;0.30;0.30;;;7.40;99.90;;;;;;4439780;32;20135;-67
2022/01/23 12:12:19;;;;;;;0.30;0.30;;;7.40;99.90;;;;;;4440672;32;20064;-67
2022/01/23 12:17:18;;;;;;;0.22;0.22;;;7.30;99.90;;;;;;4442387;32;20085;-67
2022/01/23 12:19:47;;;;;;;0.62;0.62;;;7.40;99.90;;;;;;4443052;32;20541;-67
2022/01/23 12:22:42;;;;;;;0.20;0.20;;;7.40;99.90;;;;;;4442519;32;20056;-68
2022/01/23 12:25:15;;;;;;;0.30;0.30;;;7.50;99.90;;;;;;4438904;32;20123;-67
2022/01/23 12:27:41;;;;;;;0.22;0.22;;;7.40;99.90;;;;;;4440177;32;20568;-67
2022/01/23 12:30:16;;;;;;;0.30;0.30;;;7.50;99.90;;;;;;4442151;32;20655;-67
2022/01/23 12:32:42;;;;;;;0.40;0.40;;;7.40;99.90;;;;;;4441050;32;20543;-67
2022/01/23 12:35:10;;;;;;;0.40;0.40;;;7.40;99.90;;;;;;4439574;32;20098;-67
2022/01/23 12:37:58;;;;;;;0.47;0.47;;;7.40;99.90;;;;;;4441971;32;20090;-67
2022/01/23 12:40:31;;;;;;;0.20;0.20;;;7.50;99.90;;;;;;4438989;32;20422;-67
2022/01/23 12:43:07;;;;;;;0.30;0.30;;;7.50;99.90;;;;;;4440125;32;20101;-67
2022/01/23 12:45:44;;;;;;;0.20;0.20;;;7.50;99.90;;;;;;4440184;32;20081;-68
2022/01/23 12:48:28;;;;;;;0.20;0.20;;;7.50;99.90;;;;;;4440971;32;20075;-67
2022/01/23 12:50:58;;;;;;;0.40;0.40;;;7.50;99.90;;;;;;4441341;32;20173;-67
2022/01/23 12:53:46;;;;;;;0.30;0.30;;;7.50;99.90;;;;;;4440844;32;20580;-67
2022/01/23 12:56:14;;;;;;;0.22;0.22;;;7.40;99.90;;;;;;4441145;32;20073;-67
2022/01/23 12:58:42;;;;;;;0.20;0.20;;;7.40;99.90;;;;;;4437197;32;20561;-69
2022/01/23 13:01:17;;;;;;;0.52;0.45;;;7.40;99.90;;;;;;4441330;32;20177;-68
2022/01/23 13:03:50;;;;;;;0.30;0.30;;;7.30;99.90;;;;;;4440865;32;20069;-68
2022/01/23 13:06:16;;;;;;;0.22;0.22;;;7.40;99.90;;;;;;4439665;32;20084;-67
2022/01/23 13:08:49;;;;;;;0.30;0.30;;;7.40;99.90;;;;;;4442802;32;20085;-67
2022/01/23 13:14:00;;;;;;;24.45;0.73;;;7.40;99.90;;;;;;4438998;32;20093;-67
2022/01/23 13:16:39;;;;;;;0.30;0.30;;;7.40;99.90;;;;;;4439698;32;20133;-67
2022/01/23 13:30:18;;;;;;;0.20;0.20;;;7.40;99.90;;;;;;4427430;32;20184;-69
2022/01/23 13:32:47;;;;;;;0.30;0.30;;;7.40;99.90;;;;;;4439765;32;20233;-67
2022/01/23 13:35:15;;;;;;;0.30;0.30;;;7.50;99.90;;;;;;4438492;32;20065;-68
2022/01/23 13:37:45;;;;;;;0.20;0.20;;;7.50;99.90;;;;;;4442014;32;20659;-67
2022/01/23 13:40:20;;;;;;;0.30;0.30;;;7.60;99.90;;;;;;4442414;32;20102;-67
2022/01/23 13:51:14;;;;;;;0.30;0.30;;;7.50;99.90;;;;;;4438501;32;20116;-67
2022/01/23 13:51:19;;;;;;;0.30;0.30;;;7.50;99.90;;;;;;4437276;32;20572;-67
2022/01/23 13:57:49;;;;;;;0.37;0.37;;;7.60;99.90;;;;;;4437695;32;20116;-67
2022/01/23 13:59:30;;;;;;;0.30;0.30;;;7.70;99.90;;;;;;4439790;32;20474;-67
2022/01/23 14:04:29;;;;;;;0.30;0.30;;;7.50;99.90;;;;;;4439988;32;20076;-67
2022/01/23 14:06:55;;;;;;;0.30;0.30;;;7.50;99.90;;;;;;4439789;32;20061;-67
2022/01/23 14:09:23;;;;;;;0.20;0.20;;;7.50;99.90;;;;;;4440673;32;20104;-67
2022/01/23 14:11:50;;;;;;;0.25;0.25;;;7.50;99.90;;;;;;4439878;32;20072;-67
2022/01/23 14:14:21;;;;;;;0.30;0.30;;;7.50;99.90;;;;;;4441213;32;20092;-67
2022/01/23 14:16:48;;;;;;;1.65;0.77;;;7.50;99.90;;;;;;4441273;32;20167;-67
2022/01/23 14:19:23;;;;;;;0.88;0.43;;;7.60;99.90;;;;;;4442132;32;20060;-67
2022/01/23 14:21:51;;;;;;;3.12;1.00;;;7.50;99.90;;;;;;4441024;32;20088;-67
2022/01/23 14:24:22;;;;;;;0.60;0.55;;;7.50;99.90;;;;;;4438686;32;20082;-67
2022/01/23 14:26:58;;;;;;;0.30;0.30;;;7.50;99.90;;;;;;4440913;32;20592;-67
2022/01/23 14:29:24;;;;;;;0.30;0.30;;;7.50;99.90;;;;;;4442595;32;20068;-67
2022/01/23 14:32:15;;;;;;;0.30;0.30;;;7.50;99.90;;;;;;4443434;32;20089;-68
2022/01/23 14:34:43;;;;;;;0.30;0.30;;;7.50;99.90;;;;;;4443387;32;20147;-67
2022/01/23 14:37:09;;;;;;;0.40;0.40;;;7.40;99.90;;;;;;4442562;32;20085;-67
2022/01/23 14:39:37;;;;;;;0.32;0.30;;;7.40;99.90;;;;;;4444342;32;20556;-67
2022/01/23 14:42:18;;;;;;;0.28;0.28;;;7.50;99.90;;;;;;4443705;32;20133;-67
2022/01/23 14:44:44;;;;;;;0.32;0.32;;;7.40;99.90;;;;;;4442245;32;20438;-68
2022/01/23 14:47:11;;;;;;;0.30;0.30;;;7.50;99.90;;;;;;4440253;32;20076;-68
2022/01/23 14:49:38;;;;;;;0.20;0.20;;;7.40;99.90;;;;;;4440319;32;20060;-68
2022/01/23 14:52:09;;;;;;;0.57;0.57;;;7.40;99.90;;;;;;4441942;32;20111;-69
2022/01/23 14:54:35;;;;;;;0.30;0.30;;;7.40;99.90;;;;;;4442289;32;20116;-68
2022/01/23 14:57:02;;;;;;;0.37;0.37;;;7.30;99.90;;;;;;4440759;32;20064;-68
2022/01/23 14:59:31;;;;;;;0.30;0.30;;;7.30;99.90;;;;;;4440783;32;20065;-68
2022/01/23 15:01:58;;;;;;;0.40;0.40;;;7.20;99.90;;;;;;4441703;32;20785;-68
2022/01/23 15:04:24;;;;;;;0.37;0.37;;;7.20;99.90;;;;;;4443107;32;20082;-68
2022/01/23 15:06:54;;;;;;;0.30;0.30;;;7.20;99.90;;;;;;4443091;32;20072;-68
2022/01/23 15:09:21;;;;;;;0.45;0.45;;;7.30;99.90;;;;;;4440145;32;20093;-68
2022/01/23 15:11:48;;;;;;;2.53;1.35;;;7.30;99.90;;;;;;4443356;32;20126;-68
2022/01/23 15:14:14;;;;;;;0.30;0.30;;;7.30;99.90;;;;;;4442742;32;20420;-68
2022/01/23 15:16:41;;;;;;;0.40;0.40;;;7.30;99.90;;;;;;4442825;32;20564;-68
2022/01/23 15:19:08;;;;;;;0.20;0.20;;;7.20;99.90;;;;;;4442905;32;20061;-68
2022/01/23 15:21:34;;;;;;;0.30;0.30;;;7.20;99.90;;;;;;4441767;32;20085;-68
2022/01/23 15:24:01;;;;;;;0.50;0.50;;;7.20;99.90;;;;;;4442242;32;20064;-68
2022/01/23 15:26:30;;;;;;;0.30;0.30;;;7.20;99.90;;;;;;4440758;32;20093;-68
2022/01/23 15:28:56;;;;;;;0.52;0.50;;;7.30;99.90;;;;;;4426437;32;20073;-68
2022/01/23 15:31:23;;;;;;;0.30;0.30;;;7.30;99.90;;;;;;4439949;32;20061;-68
2022/01/23 15:33:48;;;;;;;0.60;0.60;;;7.20;99.90;;;;;;4443495;32;20077;-68
2022/01/23 15:36:14;;;;;;;0.50;0.50;;;7.30;99.90;;;;;;4440477;32;20073;-67
2022/01/23 15:38:48;;;;;;;0.30;0.30;;;7.30;99.90;;;;;;4442625;32;20427;-68